sensor_id;sensor_type;location;lat;lon;timestamp;P1;durP1;ratioP1;P2;durP2;ratioP2
10947;SDS011;5526;42.070;24.752;2023-02-27T00:00:00;11.07;;;5.78;;
10947;SDS011;5526;42.070;24.752;2023-02-27T00:02:28;13.10;;;5.55;;
10947;SDS011;5526;42.070;24.752;2023-02-27T00:04:55;11.50;;;5.25;;
10947;SDS011;5526;42.070;24.752;2023-02-27T00:07:22;15.35;;;7.90;;
10947;SDS011;5526;42.070;24.752;2023-02-27T00:09:50;11.93;;;6.28;;
10947;SDS011;5526;42.070;24.752;2023-02-27T00:12:17;17.52;;;5.25;;
10947;SDS011;5526;42.070;24.752;2023-02-27T00:14:46;13.82;;;5.78;;
10947;SDS011;5526;42.070;24.752;2023-02-27T00:17:13;13.80;;;5.80;;
10947;SDS011;5526;42.070;24.752;2023-02-27T00:19:40;10.60;;;5.25;;
10947;SDS011;5526;42.070;24.752;2023-02-27T00:22:07;10.80;;;5.47;;
10947;SDS011;5526;42.070;24.752;2023-02-27T00:24:34;12.85;;;4.63;;
10947;SDS011;5526;42.070;24.752;2023-02-27T00:27:01;10.27;;;4.00;;
10947;SDS011;5526;42.070;24.752;2023-02-27T00:29:28;10.10;;;3.97;;
10947;SDS011;5526;42.070;24.752;2023-02-27T00:31:56;10.75;;;4.50;;
10947;SDS011;5526;42.070;24.752;2023-02-27T00:34:24;10.57;;;4.50;;
10947;SDS011;5526;42.070;24.752;2023-02-27T00:36:51;9.73;;;3.55;;
10947;SDS011;5526;42.070;24.752;2023-02-27T00:39:18;10.43;;;4.00;;
10947;SDS011;5526;42.070;24.752;2023-02-27T00:41:45;10.77;;;4.07;;
10947;SDS011;5526;42.070;24.752;2023-02-27T00:44:12;11.02;;;4.50;;
10947;SDS011;5526;42.070;24.752;2023-02-27T00:46:39;9.23;;;4.07;;
10947;SDS011;5526;42.070;24.752;2023-02-27T00:49:07;10.50;;;4.40;;
10947;SDS011;5526;42.070;24.752;2023-02-27T00:51:34;8.75;;;3.88;;
10947;SDS011;5526;42.070;24.752;2023-02-27T00:54:01;12.13;;;3.88;;
10947;SDS011;5526;42.070;24.752;2023-02-27T00:56:28;10.32;;;3.95;;
10947;SDS011;5526;42.070;24.752;2023-02-27T00:58:56;8.15;;;3.97;;
10947;SDS011;5526;42.070;24.752;2023-02-27T01:01:23;10.80;;;3.90;;
10947;SDS011;5526;42.070;24.752;2023-02-27T01:03:50;9.88;;;4.20;;
10947;SDS011;5526;42.070;24.752;2023-02-27T01:06:18;10.00;;;4.50;;
10947;SDS011;5526;42.070;24.752;2023-02-27T01:08:45;10.45;;;4.13;;
10947;SDS011;5526;42.070;24.752;2023-02-27T01:11:12;12.57;;;4.28;;
10947;SDS011;5526;42.070;24.752;2023-02-27T01:13:39;10.80;;;4.03;;
10947;SDS011;5526;42.070;24.752;2023-02-27T01:16:08;13.55;;;4.38;;
10947;SDS011;5526;42.070;24.752;2023-02-27T01:18:35;10.25;;;4.28;;
10947;SDS011;5526;42.070;24.752;2023-02-27T01:21:03;12.57;;;6.25;;
10947;SDS011;5526;42.070;24.752;2023-02-27T01:23:31;9.57;;;3.75;;
10947;SDS011;5526;42.070;24.752;2023-02-27T01:25:58;12.85;;;4.25;;
10947;SDS011;5526;42.070;24.752;2023-02-27T01:28:25;10.20;;;4.70;;
10947;SDS011;5526;42.070;24.752;2023-02-27T01:30:52;10.43;;;4.72;;
10947;SDS011;5526;42.070;24.752;2023-02-27T01:33:19;10.32;;;3.85;;
10947;SDS011;5526;42.070;24.752;2023-02-27T01:35:47;10.80;;;3.78;;
10947;SDS011;5526;42.070;24.752;2023-02-27T01:38:13;8.73;;;3.70;;
10947;SDS011;5526;42.070;24.752;2023-02-27T01:40:42;11.48;;;3.92;;
10947;SDS011;5526;42.070;24.752;2023-02-27T01:43:11;9.55;;;3.53;;
10947;SDS011;5526;42.070;24.752;2023-02-27T01:45:41;10.68;;;3.42;;
10947;SDS011;5526;42.070;24.752;2023-02-27T01:48:13;12.38;;;3.90;;
10947;SDS011;5526;42.070;24.752;2023-02-27T01:50:45;9.85;;;3.33;;
10947;SDS011;5526;42.070;24.752;2023-02-27T01:53:15;8.75;;;3.60;;
10947;SDS011;5526;42.070;24.752;2023-02-27T01:55:45;10.88;;;3.20;;
10947;SDS011;5526;42.070;24.752;2023-02-27T01:58:14;15.68;;;4.30;;
10947;SDS011;5526;42.070;24.752;2023-02-27T02:00:42;13.73;;;4.40;;
10947;SDS011;5526;42.070;24.752;2023-02-27T02:03:15;8.48;;;4.22;;
10947;SDS011;5526;42.070;24.752;2023-02-27T02:05:46;14.23;;;4.85;;
10947;SDS011;5526;42.070;24.752;2023-02-27T02:08:15;11.93;;;4.57;;
10947;SDS011;5526;42.070;24.752;2023-02-27T02:10:47;11.27;;;4.68;;
10947;SDS011;5526;42.070;24.752;2023-02-27T02:13:16;10.73;;;4.85;;
10947;SDS011;5526;42.070;24.752;2023-02-27T02:15:45;12.45;;;4.20;;
10947;SDS011;5526;42.070;24.752;2023-02-27T02:18:17;12.02;;;4.07;;
10947;SDS011;5526;42.070;24.752;2023-02-27T02:21:03;12.90;;;4.30;;
10947;SDS011;5526;42.070;24.752;2023-02-27T02:24:21;12.32;;;5.28;;
10947;SDS011;5526;42.070;24.752;2023-02-27T02:27:11;12.60;;;5.03;;
10947;SDS011;5526;42.070;24.752;2023-02-27T02:30:15;13.57;;;4.45;;
10947;SDS011;5526;42.070;24.752;2023-02-27T02:33:31;11.10;;;4.97;;
10947;SDS011;5526;42.070;24.752;2023-02-27T02:39:39;9.82;;;3.83;;
10947;SDS011;5526;42.070;24.752;2023-02-27T02:42:21;12.90;;;3.78;;
10947;SDS011;5526;42.070;24.752;2023-02-27T02:44:53;14.15;;;3.85;;
10947;SDS011;5526;42.070;24.752;2023-02-27T02:47:30;13.05;;;3.38;;
10947;SDS011;5526;42.070;24.752;2023-02-27T02:50:03;11.50;;;3.20;;
10947;SDS011;5526;42.070;24.752;2023-02-27T02:52:40;12.23;;;3.38;;
10947;SDS011;5526;42.070;24.752;2023-02-27T02:55:15;13.43;;;4.18;;
10947;SDS011;5526;42.070;24.752;2023-02-27T02:57:48;9.20;;;3.50;;
10947;SDS011;5526;42.070;24.752;2023-02-27T03:00:22;10.45;;;3.40;;
10947;SDS011;5526;42.070;24.752;2023-02-27T03:02:54;11.55;;;3.83;;
10947;SDS011;5526;42.070;24.752;2023-02-27T03:05:26;11.68;;;3.33;;
10947;SDS011;5526;42.070;24.752;2023-02-27T03:07:59;12.52;;;3.92;;
10947;SDS011;5526;42.070;24.752;2023-02-27T03:10:31;9.25;;;3.25;;
10947;SDS011;5526;42.070;24.752;2023-02-27T03:13:01;12.82;;;3.33;;
10947;SDS011;5526;42.070;24.752;2023-02-27T03:15:34;12.60;;;3.65;;
10947;SDS011;5526;42.070;24.752;2023-02-27T03:18:06;11.75;;;3.38;;
10947;SDS011;5526;42.070;24.752;2023-02-27T03:20:44;14.20;;;3.63;;
10947;SDS011;5526;42.070;24.752;2023-02-27T03:23:17;9.75;;;3.63;;
10947;SDS011;5526;42.070;24.752;2023-02-27T03:25:50;12.18;;;3.30;;
10947;SDS011;5526;42.070;24.752;2023-02-27T03:28:20;9.98;;;3.83;;
10947;SDS011;5526;42.070;24.752;2023-02-27T03:30:49;9.52;;;3.90;;
10947;SDS011;5526;42.070;24.752;2023-02-27T03:33:23;12.45;;;3.85;;
10947;SDS011;5526;42.070;24.752;2023-02-27T03:35:56;10.85;;;3.45;;
10947;SDS011;5526;42.070;24.752;2023-02-27T03:38:29;11.55;;;3.30;;
10947;SDS011;5526;42.070;24.752;2023-02-27T03:41:04;11.32;;;3.42;;
10947;SDS011;5526;42.070;24.752;2023-02-27T03:43:39;11.00;;;3.67;;
10947;SDS011;5526;42.070;24.752;2023-02-27T03:46:12;11.60;;;4.30;;
10947;SDS011;5526;42.070;24.752;2023-02-27T03:48:42;13.98;;;4.28;;
10947;SDS011;5526;42.070;24.752;2023-02-27T03:51:11;10.10;;;4.43;;
10947;SDS011;5526;42.070;24.752;2023-02-27T03:53:40;11.55;;;4.38;;
10947;SDS011;5526;42.070;24.752;2023-02-27T03:56:14;11.45;;;4.28;;
10947;SDS011;5526;42.070;24.752;2023-02-27T03:58:45;11.43;;;4.10;;
10947;SDS011;5526;42.070;24.752;2023-02-27T04:01:13;14.32;;;4.47;;
10947;SDS011;5526;42.070;24.752;2023-02-27T04:03:42;14.90;;;3.13;;
10947;SDS011;5526;42.070;24.752;2023-02-27T04:06:14;11.73;;;3.25;;
10947;SDS011;5526;42.070;24.752;2023-02-27T04:09:13;13.48;;;3.70;;
10947;SDS011;5526;42.070;24.752;2023-02-27T04:11:52;14.90;;;4.30;;
10947;SDS011;5526;42.070;24.752;2023-02-27T04:14:35;13.70;;;3.90;;
10947;SDS011;5526;42.070;24.752;2023-02-27T04:17:14;13.63;;;4.05;;
10947;SDS011;5526;42.070;24.752;2023-02-27T04:22:43;16.38;;;4.68;;
10947;SDS011;5526;42.070;24.752;2023-02-27T04:25:21;12.13;;;3.63;;
10947;SDS011;5526;42.070;24.752;2023-02-27T04:28:10;14.77;;;4.07;;
10947;SDS011;5526;42.070;24.752;2023-02-27T04:30:44;17.55;;;5.43;;
10947;SDS011;5526;42.070;24.752;2023-02-27T04:33:22;23.02;;;4.97;;
10947;SDS011;5526;42.070;24.752;2023-02-27T04:35:55;15.90;;;4.25;;
10947;SDS011;5526;42.070;24.752;2023-02-27T04:38:28;13.70;;;4.32;;
10947;SDS011;5526;42.070;24.752;2023-02-27T04:41:01;15.15;;;4.22;;
10947;SDS011;5526;42.070;24.752;2023-02-27T04:43:36;14.60;;;3.30;;
10947;SDS011;5526;42.070;24.752;2023-02-27T04:46:07;18.80;;;3.67;;
10947;SDS011;5526;42.070;24.752;2023-02-27T04:48:39;88.68;;;8.63;;
10947;SDS011;5526;42.070;24.752;2023-02-27T04:51:11;16.33;;;2.28;;
10947;SDS011;5526;42.070;24.752;2023-02-27T04:53:44;9.52;;;1.83;;
10947;SDS011;5526;42.070;24.752;2023-02-27T04:56:15;5.40;;;1.70;;
10947;SDS011;5526;42.070;24.752;2023-02-27T04:58:49;5.50;;;1.83;;
10947;SDS011;5526;42.070;24.752;2023-02-27T05:01:20;6.53;;;1.10;;
10947;SDS011;5526;42.070;24.752;2023-02-27T05:03:50;2.25;;;0.80;;
10947;SDS011;5526;42.070;24.752;2023-02-27T05:06:20;2.78;;;0.85;;
10947;SDS011;5526;42.070;24.752;2023-02-27T05:08:54;3.90;;;0.80;;
10947;SDS011;5526;42.070;24.752;2023-02-27T05:11:25;3.47;;;2.03;;
10947;SDS011;5526;42.070;24.752;2023-02-27T05:13:58;3.95;;;0.80;;
10947;SDS011;5526;42.070;24.752;2023-02-27T05:16:34;2.30;;;0.70;;
10947;SDS011;5526;42.070;24.752;2023-02-27T05:19:05;3.78;;;1.17;;
10947;SDS011;5526;42.070;24.752;2023-02-27T05:21:35;3.40;;;1.23;;
10947;SDS011;5526;42.070;24.752;2023-02-27T05:24:11;12.63;;;1.38;;
10947;SDS011;5526;42.070;24.752;2023-02-27T05:27:03;2.28;;;1.02;;
10947;SDS011;5526;42.070;24.752;2023-02-27T05:29:48;2.05;;;0.70;;
10947;SDS011;5526;42.070;24.752;2023-02-27T05:32:28;2.45;;;0.80;;
10947;SDS011;5526;42.070;24.752;2023-02-27T05:35:01;2.15;;;0.80;;
10947;SDS011;5526;42.070;24.752;2023-02-27T05:37:35;2.17;;;0.80;;
10947;SDS011;5526;42.070;24.752;2023-02-27T05:40:08;2.50;;;0.70;;
10947;SDS011;5526;42.070;24.752;2023-02-27T05:42:39;3.70;;;0.70;;
10947;SDS011;5526;42.070;24.752;2023-02-27T05:45:12;1.90;;;0.57;;
10947;SDS011;5526;42.070;24.752;2023-02-27T05:47:44;1.48;;;0.60;;
10947;SDS011;5526;42.070;24.752;2023-02-27T05:50:16;2.30;;;0.60;;
10947;SDS011;5526;42.070;24.752;2023-02-27T05:52:46;3.10;;;0.68;;
10947;SDS011;5526;42.070;24.752;2023-02-27T05:55:16;0.77;;;0.50;;
10947;SDS011;5526;42.070;24.752;2023-02-27T05:57:48;3.30;;;0.60;;
10947;SDS011;5526;42.070;24.752;2023-02-27T06:00:21;3.22;;;0.80;;
10947;SDS011;5526;42.070;24.752;2023-02-27T06:02:53;5.22;;;1.35;;
10947;SDS011;5526;42.070;24.752;2023-02-27T06:05:20;7.55;;;2.55;;
10947;SDS011;5526;42.070;24.752;2023-02-27T06:07:48;3.25;;;1.52;;
10947;SDS011;5526;42.070;24.752;2023-02-27T06:10:18;7.22;;;1.90;;
10947;SDS011;5526;42.070;24.752;2023-02-27T06:12:46;9.75;;;1.85;;
10947;SDS011;5526;42.070;24.752;2023-02-27T06:15:13;8.45;;;2.05;;
10947;SDS011;5526;42.070;24.752;2023-02-27T06:17:43;4.05;;;0.93;;
10947;SDS011;5526;42.070;24.752;2023-02-27T06:20:10;3.38;;;1.35;;
10947;SDS011;5526;42.070;24.752;2023-02-27T06:22:38;3.78;;;1.55;;
10947;SDS011;5526;42.070;24.752;2023-02-27T06:25:05;6.00;;;1.45;;
10947;SDS011;5526;42.070;24.752;2023-02-27T06:27:32;6.30;;;1.55;;
10947;SDS011;5526;42.070;24.752;2023-02-27T06:29:59;3.97;;;1.42;;
10947;SDS011;5526;42.070;24.752;2023-02-27T06:32:27;4.53;;;1.27;;
10947;SDS011;5526;42.070;24.752;2023-02-27T06:34:55;5.95;;;1.80;;
10947;SDS011;5526;42.070;24.752;2023-02-27T06:37:22;5.68;;;1.88;;
10947;SDS011;5526;42.070;24.752;2023-02-27T06:39:49;3.67;;;1.95;;
10947;SDS011;5526;42.070;24.752;2023-02-27T06:42:16;3.03;;;1.10;;
10947;SDS011;5526;42.070;24.752;2023-02-27T06:44:43;4.63;;;1.20;;
10947;SDS011;5526;42.070;24.752;2023-02-27T06:47:10;4.63;;;1.67;;
10947;SDS011;5526;42.070;24.752;2023-02-27T06:49:37;4.30;;;1.40;;
10947;SDS011;5526;42.070;24.752;2023-02-27T06:52:06;7.60;;;1.55;;
10947;SDS011;5526;42.070;24.752;2023-02-27T06:54:33;4.07;;;2.13;;
10947;SDS011;5526;42.070;24.752;2023-02-27T06:57:00;4.32;;;2.20;;
10947;SDS011;5526;42.070;24.752;2023-02-27T06:59:27;2.78;;;1.90;;
10947;SDS011;5526;42.070;24.752;2023-02-27T07:01:54;4.03;;;1.65;;
10947;SDS011;5526;42.070;24.752;2023-02-27T07:04:22;2.33;;;1.33;;
10947;SDS011;5526;42.070;24.752;2023-02-27T07:06:49;4.85;;;2.78;;
10947;SDS011;5526;42.070;24.752;2023-02-27T07:09:18;4.40;;;1.50;;
10947;SDS011;5526;42.070;24.752;2023-02-27T07:11:46;2.83;;;1.40;;
10947;SDS011;5526;42.070;24.752;2023-02-27T07:14:13;3.35;;;1.40;;
10947;SDS011;5526;42.070;24.752;2023-02-27T07:16:40;4.78;;;1.30;;
10947;SDS011;5526;42.070;24.752;2023-02-27T07:19:08;5.30;;;1.65;;
10947;SDS011;5526;42.070;24.752;2023-02-27T07:21:36;5.38;;;3.42;;
10947;SDS011;5526;42.070;24.752;2023-02-27T07:24:03;7.22;;;5.13;;
10947;SDS011;5526;42.070;24.752;2023-02-27T07:26:32;3.67;;;1.75;;
10947;SDS011;5526;42.070;24.752;2023-02-27T07:28:59;4.18;;;1.60;;
10947;SDS011;5526;42.070;24.752;2023-02-27T07:31:26;3.65;;;1.33;;
10947;SDS011;5526;42.070;24.752;2023-02-27T07:33:53;4.25;;;1.77;;
10947;SDS011;5526;42.070;24.752;2023-02-27T07:36:20;16.25;;;10.57;;
10947;SDS011;5526;42.070;24.752;2023-02-27T07:38:47;9.57;;;3.13;;
10947;SDS011;5526;42.070;24.752;2023-02-27T07:41:14;3.08;;;1.20;;
10947;SDS011;5526;42.070;24.752;2023-02-27T07:43:43;5.90;;;1.27;;
10947;SDS011;5526;42.070;24.752;2023-02-27T07:46:10;8.05;;;1.73;;
10947;SDS011;5526;42.070;24.752;2023-02-27T07:48:37;4.55;;;2.20;;
10947;SDS011;5526;42.070;24.752;2023-02-27T07:51:05;6.68;;;2.45;;
10947;SDS011;5526;42.070;24.752;2023-02-27T07:53:32;6.25;;;2.67;;
10947;SDS011;5526;42.070;24.752;2023-02-27T07:55:59;8.07;;;2.85;;
10947;SDS011;5526;42.070;24.752;2023-02-27T07:58:26;4.45;;;2.50;;
10947;SDS011;5526;42.070;24.752;2023-02-27T08:00:54;5.28;;;1.65;;
10947;SDS011;5526;42.070;24.752;2023-02-27T08:03:22;3.30;;;1.60;;
10947;SDS011;5526;42.070;24.752;2023-02-27T08:05:49;3.75;;;1.65;;
10947;SDS011;5526;42.070;24.752;2023-02-27T08:08:16;2.75;;;1.30;;
10947;SDS011;5526;42.070;24.752;2023-02-27T08:10:43;9.02;;;1.55;;
10947;SDS011;5526;42.070;24.752;2023-02-27T08:13:10;3.38;;;1.40;;
10947;SDS011;5526;42.070;24.752;2023-02-27T08:15:38;4.18;;;1.45;;
10947;SDS011;5526;42.070;24.752;2023-02-27T08:18:07;3.35;;;1.38;;
10947;SDS011;5526;42.070;24.752;2023-02-27T08:20:34;6.72;;;1.25;;
10947;SDS011;5526;42.070;24.752;2023-02-27T08:23:01;4.95;;;1.70;;
10947;SDS011;5526;42.070;24.752;2023-02-27T08:25:28;8.13;;;1.48;;
10947;SDS011;5526;42.070;24.752;2023-02-27T08:27:55;8.15;;;1.73;;
10947;SDS011;5526;42.070;24.752;2023-02-27T08:30:22;3.38;;;1.58;;
10947;SDS011;5526;42.070;24.752;2023-02-27T08:32:49;7.43;;;1.90;;
10947;SDS011;5526;42.070;24.752;2023-02-27T08:35:18;4.15;;;1.50;;
10947;SDS011;5526;42.070;24.752;2023-02-27T08:37:45;5.72;;;1.55;;
10947;SDS011;5526;42.070;24.752;2023-02-27T08:40:13;7.00;;;1.92;;
10947;SDS011;5526;42.070;24.752;2023-02-27T08:42:40;5.97;;;2.25;;
10947;SDS011;5526;42.070;24.752;2023-02-27T08:45:07;6.32;;;1.63;;
10947;SDS011;5526;42.070;24.752;2023-02-27T08:47:35;7.13;;;2.83;;
10947;SDS011;5526;42.070;24.752;2023-02-27T08:50:02;6.80;;;2.50;;
10947;SDS011;5526;42.070;24.752;2023-02-27T08:52:31;8.75;;;2.08;;
10947;SDS011;5526;42.070;24.752;2023-02-27T08:54:58;8.02;;;2.75;;
10947;SDS011;5526;42.070;24.752;2023-02-27T08:57:25;6.78;;;2.53;;
10947;SDS011;5526;42.070;24.752;2023-02-27T08:59:52;6.22;;;1.77;;
10947;SDS011;5526;42.070;24.752;2023-02-27T09:02:19;9.40;;;1.80;;
10947;SDS011;5526;42.070;24.752;2023-02-27T09:04:50;5.50;;;1.83;;
10947;SDS011;5526;42.070;24.752;2023-02-27T09:07:17;7.97;;;2.70;;
10947;SDS011;5526;42.070;24.752;2023-02-27T09:09:45;8.05;;;2.50;;
10947;SDS011;5526;42.070;24.752;2023-02-27T09:12:12;9.55;;;2.45;;
10947;SDS011;5526;42.070;24.752;2023-02-27T09:14:39;6.38;;;2.25;;
10947;SDS011;5526;42.070;24.752;2023-02-27T09:17:07;8.40;;;1.90;;
10947;SDS011;5526;42.070;24.752;2023-02-27T09:19:34;7.93;;;2.10;;
10947;SDS011;5526;42.070;24.752;2023-02-27T09:22:01;5.78;;;2.13;;
10947;SDS011;5526;42.070;24.752;2023-02-27T09:24:28;7.63;;;1.60;;
10947;SDS011;5526;42.070;24.752;2023-02-27T09:26:56;7.20;;;2.28;;
10947;SDS011;5526;42.070;24.752;2023-02-27T09:29:23;5.00;;;1.60;;
10947;SDS011;5526;42.070;24.752;2023-02-27T09:31:51;8.50;;;1.73;;
10947;SDS011;5526;42.070;24.752;2023-02-27T09:34:19;4.35;;;1.70;;
10947;SDS011;5526;42.070;24.752;2023-02-27T09:36:46;7.45;;;1.75;;
10947;SDS011;5526;42.070;24.752;2023-02-27T09:39:13;6.80;;;2.08;;
10947;SDS011;5526;42.070;24.752;2023-02-27T09:41:51;6.45;;;1.70;;
10947;SDS011;5526;42.070;24.752;2023-02-27T09:44:29;6.03;;;1.58;;
10947;SDS011;5526;42.070;24.752;2023-02-27T09:47:01;5.63;;;1.92;;
10947;SDS011;5526;42.070;24.752;2023-02-27T09:49:31;5.43;;;1.40;;
10947;SDS011;5526;42.070;24.752;2023-02-27T09:52:01;3.05;;;1.13;;
10947;SDS011;5526;42.070;24.752;2023-02-27T09:54:29;4.53;;;1.83;;
10947;SDS011;5526;42.070;24.752;2023-02-27T09:57:00;6.75;;;1.70;;
10947;SDS011;5526;42.070;24.752;2023-02-27T09:59:33;5.07;;;1.17;;
10947;SDS011;5526;42.070;24.752;2023-02-27T10:02:05;4.32;;;1.42;;
10947;SDS011;5526;42.070;24.752;2023-02-27T10:04:48;5.72;;;1.60;;
10947;SDS011;5526;42.070;24.752;2023-02-27T10:07:23;7.30;;;1.70;;
10947;SDS011;5526;42.070;24.752;2023-02-27T10:09:59;6.10;;;1.58;;
10947;SDS011;5526;42.070;24.752;2023-02-27T10:12:40;5.70;;;1.70;;
10947;SDS011;5526;42.070;24.752;2023-02-27T10:15:22;6.75;;;1.90;;
10947;SDS011;5526;42.070;24.752;2023-02-27T10:17:52;5.13;;;1.33;;
10947;SDS011;5526;42.070;24.752;2023-02-27T10:20:25;8.10;;;1.90;;
10947;SDS011;5526;42.070;24.752;2023-02-27T10:22:57;4.38;;;1.52;;
10947;SDS011;5526;42.070;24.752;2023-02-27T10:25:27;9.10;;;1.80;;
10947;SDS011;5526;42.070;24.752;2023-02-27T10:27:56;4.07;;;1.40;;
10947;SDS011;5526;42.070;24.752;2023-02-27T10:30:29;4.28;;;1.80;;
10947;SDS011;5526;42.070;24.752;2023-02-27T10:32:58;6.15;;;1.90;;
10947;SDS011;5526;42.070;24.752;2023-02-27T10:35:34;6.70;;;2.20;;
10947;SDS011;5526;42.070;24.752;2023-02-27T10:38:04;7.30;;;2.03;;
10947;SDS011;5526;42.070;24.752;2023-02-27T10:40:37;6.97;;;2.08;;
10947;SDS011;5526;42.070;24.752;2023-02-27T10:43:06;8.75;;;2.05;;
10947;SDS011;5526;42.070;24.752;2023-02-27T10:45:35;7.40;;;2.20;;
10947;SDS011;5526;42.070;24.752;2023-02-27T10:48:03;4.28;;;1.60;;
10947;SDS011;5526;42.070;24.752;2023-02-27T10:50:32;7.55;;;1.92;;
10947;SDS011;5526;42.070;24.752;2023-02-27T10:53:03;10.57;;;1.75;;
10947;SDS011;5526;42.070;24.752;2023-02-27T10:55:33;10.82;;;2.05;;
10947;SDS011;5526;42.070;24.752;2023-02-27T10:58:03;7.50;;;1.85;;
10947;SDS011;5526;42.070;24.752;2023-02-27T11:00:33;8.38;;;1.90;;
10947;SDS011;5526;42.070;24.752;2023-02-27T11:03:15;11.93;;;2.70;;
10947;SDS011;5526;42.070;24.752;2023-02-27T11:05:51;12.43;;;2.92;;
10947;SDS011;5526;42.070;24.752;2023-02-27T11:08:20;12.13;;;2.67;;
10947;SDS011;5526;42.070;24.752;2023-02-27T11:10:52;10.18;;;2.55;;
10947;SDS011;5526;42.070;24.752;2023-02-27T11:13:22;10.18;;;2.33;;
10947;SDS011;5526;42.070;24.752;2023-02-27T11:16:08;13.95;;;2.50;;
10947;SDS011;5526;42.070;24.752;2023-02-27T11:18:38;8.43;;;2.30;;
10947;SDS011;5526;42.070;24.752;2023-02-27T11:21:16;11.35;;;2.88;;
10947;SDS011;5526;42.070;24.752;2023-02-27T11:23:54;11.02;;;3.10;;
10947;SDS011;5526;42.070;24.752;2023-02-27T11:26:24;14.52;;;2.78;;
10947;SDS011;5526;42.070;24.752;2023-02-27T11:31:44;13.25;;;3.00;;
10947;SDS011;5526;42.070;24.752;2023-02-27T11:34:19;14.50;;;2.88;;
10947;SDS011;5526;42.070;24.752;2023-02-27T11:36:49;8.05;;;2.78;;
10947;SDS011;5526;42.070;24.752;2023-02-27T11:39:21;13.50;;;3.40;;
10947;SDS011;5526;42.070;24.752;2023-02-27T11:41:52;10.48;;;3.22;;
10947;SDS011;5526;42.070;24.752;2023-02-27T11:44:21;11.32;;;2.80;;
10947;SDS011;5526;42.070;24.752;2023-02-27T11:47:08;13.60;;;2.95;;
10947;SDS011;5526;42.070;24.752;2023-02-27T11:49:41;13.43;;;3.10;;
10947;SDS011;5526;42.070;24.752;2023-02-27T11:52:22;13.57;;;2.75;;
10947;SDS011;5526;42.070;24.752;2023-02-27T11:54:59;9.82;;;2.40;;
10947;SDS011;5526;42.070;24.752;2023-02-27T11:57:30;12.13;;;2.83;;
10947;SDS011;5526;42.070;24.752;2023-02-27T12:00:03;11.27;;;2.75;;
10947;SDS011;5526;42.070;24.752;2023-02-27T12:02:44;9.60;;;2.70;;
10947;SDS011;5526;42.070;24.752;2023-02-27T12:05:14;11.18;;;2.55;;
10947;SDS011;5526;42.070;24.752;2023-02-27T12:07:45;9.38;;;2.60;;
10947;SDS011;5526;42.070;24.752;2023-02-27T12:10:18;10.15;;;2.92;;
10947;SDS011;5526;42.070;24.752;2023-02-27T12:12:48;11.05;;;2.83;;
10947;SDS011;5526;42.070;24.752;2023-02-27T12:15:26;14.70;;;2.65;;
10947;SDS011;5526;42.070;24.752;2023-02-27T12:18:04;11.10;;;2.95;;
10947;SDS011;5526;42.070;24.752;2023-02-27T12:20:39;8.55;;;2.50;;
10947;SDS011;5526;42.070;24.752;2023-02-27T12:23:15;12.25;;;2.78;;
10947;SDS011;5526;42.070;24.752;2023-02-27T12:25:47;9.30;;;2.38;;
10947;SDS011;5526;42.070;24.752;2023-02-27T12:28:21;10.52;;;3.13;;
10947;SDS011;5526;42.070;24.752;2023-02-27T12:31:04;11.60;;;2.95;;
10947;SDS011;5526;42.070;24.752;2023-02-27T12:33:43;8.07;;;2.42;;
10947;SDS011;5526;42.070;24.752;2023-02-27T12:36:15;11.35;;;2.83;;
10947;SDS011;5526;42.070;24.752;2023-02-27T12:38:42;11.05;;;3.40;;
10947;SDS011;5526;42.070;24.752;2023-02-27T12:41:28;11.75;;;3.17;;
10947;SDS011;5526;42.070;24.752;2023-02-27T12:44:10;11.13;;;2.45;;
10947;SDS011;5526;42.070;24.752;2023-02-27T12:46:49;11.20;;;3.15;;
10947;SDS011;5526;42.070;24.752;2023-02-27T12:49:27;8.60;;;2.47;;
10947;SDS011;5526;42.070;24.752;2023-02-27T12:52:04;12.35;;;2.45;;
10947;SDS011;5526;42.070;24.752;2023-02-27T12:54:46;9.20;;;2.67;;
10947;SDS011;5526;42.070;24.752;2023-02-27T12:57:24;9.63;;;2.70;;
10947;SDS011;5526;42.070;24.752;2023-02-27T13:02:55;10.00;;;2.30;;
10947;SDS011;5526;42.070;24.752;2023-02-27T13:05:29;12.13;;;3.08;;
10947;SDS011;5526;42.070;24.752;2023-02-27T13:08:05;19.02;;;3.72;;
10947;SDS011;5526;42.070;24.752;2023-02-27T13:10:42;11.55;;;2.70;;
10947;SDS011;5526;42.070;24.752;2023-02-27T13:13:15;11.95;;;3.10;;
10947;SDS011;5526;42.070;24.752;2023-02-27T13:15:49;14.38;;;2.20;;
10947;SDS011;5526;42.070;24.752;2023-02-27T13:18:27;11.15;;;2.67;;
10947;SDS011;5526;42.070;24.752;2023-02-27T13:21:03;14.00;;;3.00;;
10947;SDS011;5526;42.070;24.752;2023-02-27T13:23:39;10.55;;;2.30;;
10947;SDS011;5526;42.070;24.752;2023-02-27T13:26:13;9.52;;;2.53;;
10947;SDS011;5526;42.070;24.752;2023-02-27T13:28:46;12.30;;;3.03;;
10947;SDS011;5526;42.070;24.752;2023-02-27T13:31:16;11.60;;;2.92;;
10947;SDS011;5526;42.070;24.752;2023-02-27T13:33:53;18.13;;;3.10;;
10947;SDS011;5526;42.070;24.752;2023-02-27T13:36:30;16.60;;;3.10;;
10947;SDS011;5526;42.070;24.752;2023-02-27T13:39:03;13.68;;;2.22;;
10947;SDS011;5526;42.070;24.752;2023-02-27T13:41:52;16.00;;;3.20;;
10947;SDS011;5526;42.070;24.752;2023-02-27T13:53:12;16.85;;;3.47;;
10947;SDS011;5526;42.070;24.752;2023-02-27T13:55:44;20.42;;;4.43;;
10947;SDS011;5526;42.070;24.752;2023-02-27T13:58:15;17.02;;;3.58;;
10947;SDS011;5526;42.070;24.752;2023-02-27T14:00:56;20.00;;;4.00;;
10947;SDS011;5526;42.070;24.752;2023-02-27T14:03:26;9.85;;;3.58;;
10947;SDS011;5526;42.070;24.752;2023-02-27T14:05:57;18.27;;;4.65;;
10947;SDS011;5526;42.070;24.752;2023-02-27T14:08:29;19.25;;;4.07;;
10947;SDS011;5526;42.070;24.752;2023-02-27T14:11:09;15.60;;;3.72;;
10947;SDS011;5526;42.070;24.752;2023-02-27T14:14:02;14.40;;;3.63;;
10947;SDS011;5526;42.070;24.752;2023-02-27T14:16:51;15.75;;;3.92;;
10947;SDS011;5526;42.070;24.752;2023-02-27T14:22:28;15.95;;;4.10;;
10947;SDS011;5526;42.070;24.752;2023-02-27T14:25:17;17.42;;;3.85;;
10947;SDS011;5526;42.070;24.752;2023-02-27T14:27:50;12.07;;;3.22;;
10947;SDS011;5526;42.070;24.752;2023-02-27T14:30:30;16.02;;;3.80;;
10947;SDS011;5526;42.070;24.752;2023-02-27T14:33:02;16.92;;;3.97;;
10947;SDS011;5526;42.070;24.752;2023-02-27T14:35:44;12.77;;;3.38;;
10947;SDS011;5526;42.070;24.752;2023-02-27T14:38:14;12.73;;;3.13;;
10947;SDS011;5526;42.070;24.752;2023-02-27T14:40:50;13.88;;;3.45;;
10947;SDS011;5526;42.070;24.752;2023-02-27T14:43:34;18.45;;;4.03;;
10947;SDS011;5526;42.070;24.752;2023-02-27T14:46:05;18.98;;;4.82;;
10947;SDS011;5526;42.070;24.752;2023-02-27T14:48:37;15.18;;;3.63;;
10947;SDS011;5526;42.070;24.752;2023-02-27T14:51:05;19.33;;;3.65;;
10947;SDS011;5526;42.070;24.752;2023-02-27T14:53:32;12.63;;;3.63;;
10947;SDS011;5526;42.070;24.752;2023-02-27T14:56:02;20.27;;;4.10;;
10947;SDS011;5526;42.070;24.752;2023-02-27T14:58:29;22.73;;;4.40;;
10947;SDS011;5526;42.070;24.752;2023-02-27T15:01:00;18.40;;;3.92;;
10947;SDS011;5526;42.070;24.752;2023-02-27T15:03:33;25.00;;;4.20;;
10947;SDS011;5526;42.070;24.752;2023-02-27T15:06:10;18.15;;;4.25;;
10947;SDS011;5526;42.070;24.752;2023-02-27T15:08:41;19.52;;;4.53;;
10947;SDS011;5526;42.070;24.752;2023-02-27T15:11:15;16.88;;;3.83;;
10947;SDS011;5526;42.070;24.752;2023-02-27T15:13:44;21.10;;;4.68;;
10947;SDS011;5526;42.070;24.752;2023-02-27T15:16:25;18.55;;;5.63;;
10947;SDS011;5526;42.070;24.752;2023-02-27T15:18:56;71.15;;;34.42;;
10947;SDS011;5526;42.070;24.752;2023-02-27T15:21:26;46.65;;;21.08;;
10947;SDS011;5526;42.070;24.752;2023-02-27T15:23:56;64.15;;;32.85;;
10947;SDS011;5526;42.070;24.752;2023-02-27T15:26:26;26.35;;;11.70;;
10947;SDS011;5526;42.070;24.752;2023-02-27T15:28:55;26.50;;;10.57;;
10947;SDS011;5526;42.070;24.752;2023-02-27T15:31:24;33.25;;;11.98;;